Time;durP1;ratioP1;P1;durP2;ratioP2;P2;SDS_P1;SDS_P2;PMS_P1;PMS_P2;Temp;Humidity;BMP_temperature;BMP_pressure;BME280_temperature;BME280_humidity;BME280_pressure;Samples;Min_cycle;Max_cycle;Signal;HPM_P1;HPM_P2
2021/10/29 00:00:41;;;;;;;;;;;11.20;99.90;;;;;;5088992;28;20295;-78
2021/10/29 00:03:07;;;;;;;;;;;11.20;99.90;;;;;;5082895;28;19908;-77
2021/10/29 00:05:34;;;;;;;;;;;11.20;99.90;;;;;;5082684;28;19912;-77
2021/10/29 00:07:59;;;;;;;;;;;11.20;99.90;;;;;;5079668;28;19961;-78
2021/10/29 00:10:25;;;;;;;;;;;11.30;99.90;;;;;;5086720;28;19912;-76
2021/10/29 00:12:51;;;;;;;;;;;11.40;99.90;;;;;;5088859;28;19934;-76
2021/10/29 00:15:17;;;;;;;;;;;11.30;99.90;;;;;;5089323;28;19908;-77
2021/10/29 00:17:42;;;;;;;;;;;11.30;99.90;;;;;;5084118;28;20356;-78
2021/10/29 00:20:09;;;;;;;;;;;11.20;99.90;;;;;;5080295;28;19961;-77
2021/10/29 00:22:34;;;;;;;;;;;11.30;99.90;;;;;;5082588;28;20019;-79
2021/10/29 00:25:00;;;;;;;;;;;11.10;99.90;;;;;;5088741;28;19999;-77
2021/10/29 00:27:25;;;;;;;;;;;11.20;99.90;;;;;;5092600;28;19908;-76
2021/10/29 00:29:51;;;;;;;;;;;11.20;99.90;;;;;;5086515;28;19920;-78
2021/10/29 00:32:16;;;;;;;;;;;11.20;99.90;;;;;;5092205;28;20364;-78
2021/10/29 00:34:42;;;;;;;;;;;11.20;99.90;;;;;;5089164;28;20359;-76
2021/10/29 00:37:07;;;;;;;;;;;11.20;99.90;;;;;;5096090;28;19970;-79
2021/10/29 00:39:33;;;;;;;;;;;11.20;99.90;;;;;;5070372;28;19992;-78
2021/10/29 00:41:58;;;;;;;;;;;11.20;99.90;;;;;;5063267;28;20240;-77
2021/10/29 00:44:25;;;;;;;;;;;11.10;99.90;;;;;;5088383;28;20287;-79
2021/10/29 00:46:51;;;;;;;;;;;11.10;99.90;;;;;;5112694;27;19972;-77
2021/10/29 00:49:17;;;;;;;;;;;11.10;99.90;;;;;;5092178;28;20415;-79
2021/10/29 00:51:43;;;;;;;;;;;11.00;99.90;;;;;;5089916;28;19922;-75
2021/10/29 00:54:09;;;;;;;;;;;11.00;99.90;;;;;;5069994;28;19920;-79
2021/10/29 00:56:35;;;;;;;;;;;11.10;99.90;;;;;;5092665;28;19912;-78
2021/10/29 00:59:00;;;;;;;;;;;11.20;99.90;;;;;;5106342;28;19915;-77
2021/10/29 01:01:26;;;;;;;;;;;11.30;99.90;;;;;;5103351;28;19908;-78
2021/10/29 01:03:51;;;;;;;;;;;11.20;99.90;;;;;;5093085;28;19916;-77
2021/10/29 01:06:17;;;;;;;;;;;11.20;99.90;;;;;;5088612;28;19919;-78
2021/10/29 01:08:42;;;;;;;;;;;11.20;99.90;;;;;;5097547;28;19921;-79
2021/10/29 01:11:12;;;;;;;;;;;11.20;99.90;;;;;;5103769;28;20437;-78
2021/10/29 01:13:37;;;;;;;;;;;11.10;99.90;;;;;;5085884;28;20002;-77
2021/10/29 01:16:03;;;;;;;;;;;11.10;99.90;;;;;;5087769;28;19961;-75
2021/10/29 01:18:28;;;;;;;;;;;11.10;99.90;;;;;;5090077;28;19912;-76
2021/10/29 01:20:54;;;;;;;;;;;11.20;99.90;;;;;;5117619;27;19916;-76
2021/10/29 01:23:19;;;;;;;;;;;11.10;99.90;;;;;;5093475;28;19999;-78
2021/10/29 01:25:45;;;;;;;;;;;11.10;99.90;;;;;;5091918;28;20317;-76
2021/10/29 01:28:11;;;;;;;;;;;11.00;99.90;;;;;;5083720;28;19912;-76
2021/10/29 01:30:36;;;;;;;;;;;11.10;99.90;;;;;;5094715;28;19953;-76
2021/10/29 01:33:02;;;;;;;;;;;11.10;99.90;;;;;;5097007;28;19912;-77
2021/10/29 01:35:28;;;;;;;;;;;11.10;99.90;;;;;;5091983;28;19951;-77
2021/10/29 01:37:54;;;;;;;;;;;11.10;99.90;;;;;;5107087;28;20387;-78
2021/10/29 01:40:20;;;;;;;;;;;11.10;99.90;;;;;;5092596;28;20054;-77
2021/10/29 01:42:48;;;;;;;;;;;11.10;99.90;;;;;;5097039;28;20256;-78
2021/10/29 01:45:14;;;;;;;;;;;11.10;99.90;;;;;;5094951;28;20294;-77
2021/10/29 01:47:39;;;;;;;;;;;11.10;99.90;;;;;;5088590;28;19924;-77
2021/10/29 01:50:05;;;;;;;;;;;11.20;99.90;;;;;;5090369;28;19919;-77
2021/10/29 01:52:31;;;;;;;;;;;11.10;99.90;;;;;;5110075;27;20018;-77
2021/10/29 01:54:56;;;;;;;;;;;11.10;99.90;;;;;;5092009;28;19999;-78
2021/10/29 01:57:22;;;;;;;;;;;11.20;99.90;;;;;;5107734;28;19912;-77
2021/10/29 01:59:47;;;;;;;;;;;11.20;99.90;;;;;;5091967;28;19958;-78
2021/10/29 02:02:13;;;;;;;;;;;11.20;99.90;;;;;;5096458;28;19908;-76
2021/10/29 02:04:39;;;;;;;;;;;11.30;99.90;;;;;;5092035;28;20334;-77
2021/10/29 02:07:04;;;;;;;;;;;11.20;99.90;;;;;;5079059;28;19908;-76
2021/10/29 02:09:30;;;;;;;;;;;11.30;99.90;;;;;;5092265;28;19912;-78
2021/10/29 02:11:55;;;;;;;;;;;11.20;99.90;;;;;;5090080;28;19908;-77
2021/10/29 02:14:21;;;;;;;;;;;11.20;99.90;;;;;;5092228;28;19991;-76
2021/10/29 02:16:47;;;;;;;;;;;11.20;99.90;;;;;;5092191;28;19978;-78
2021/10/29 02:19:12;;;;;;;;;;;11.20;99.90;;;;;;5082847;28;19961;-77
2021/10/29 02:21:38;;;;;;;;;;;11.30;99.90;;;;;;5091848;28;19912;-76
2021/10/29 02:24:04;;;;;;;;;;;11.20;99.90;;;;;;5093332;28;19912;-78
2021/10/29 02:26:29;;;;;;;;;;;11.30;99.90;;;;;;5091992;28;19912;-77
2021/10/29 02:28:55;;;;;;;;;;;11.20;99.90;;;;;;5088806;28;19948;-76
2021/10/29 02:31:20;;;;;;;;;;;11.20;99.90;;;;;;5094283;28;19920;-77
2021/10/29 02:33:46;;;;;;;;;;;11.30;99.90;;;;;;5110562;27;20340;-77
2021/10/29 02:36:11;;;;;;;;;;;11.20;99.90;;;;;;5090769;28;20014;-77
2021/10/29 02:38:37;;;;;;;;;;;11.20;99.90;;;;;;5072463;28;20034;-80
2021/10/29 02:41:03;;;;;;;;;;;11.20;99.90;;;;;;5091643;28;19947;-79
2021/10/29 02:43:30;;;;;;;;;;;11.10;99.90;;;;;;5093295;28;20382;-79
2021/10/29 02:45:56;;;;;;;;;;;11.20;99.90;;;;;;5114086;27;19915;-77
2021/10/29 02:48:21;;;;;;;;;;;11.20;99.90;;;;;;5090095;28;20224;-77
2021/10/29 02:50:47;;;;;;;;;;;11.20;99.90;;;;;;5090718;28;19915;-78
2021/10/29 02:53:13;;;;;;;;;;;11.30;99.90;;;;;;5070796;28;20391;-78
2021/10/29 02:55:38;;;;;;;;;;;11.30;99.90;;;;;;5088907;28;19939;-78
2021/10/29 02:58:04;;;;;;;;;;;11.30;99.90;;;;;;5091390;28;19916;-80
2021/10/29 03:00:30;;;;;;;;;;;11.30;99.90;;;;;;5069401;28;20607;-77
2021/10/29 03:02:55;;;;;;;;;;;11.20;99.90;;;;;;5072788;28;19961;-78
2021/10/29 03:05:21;;;;;;;;;;;11.20;99.90;;;;;;5090603;28;19908;-78
2021/10/29 03:07:47;;;;;;;;;;;11.20;99.90;;;;;;5085145;28;19908;-80
2021/10/29 03:10:13;;;;;;;;;;;11.20;99.90;;;;;;5080336;28;20445;-78
2021/10/29 03:12:39;;;;;;;;;;;11.20;99.90;;;;;;5091981;28;19947;-78
2021/10/29 03:15:05;;;;;;;;;;;11.20;99.90;;;;;;5088137;28;20469;-77
2021/10/29 03:17:31;;;;;;;;;;;11.30;99.90;;;;;;5094469;28;19912;-76
2021/10/29 03:19:57;;;;;;;;;;;11.30;99.90;;;;;;5089011;28;19931;-77
2021/10/29 03:22:22;;;;;;;;;;;11.30;99.90;;;;;;5085615;28;19916;-77
2021/10/29 03:24:48;;;;;;;;;;;11.30;99.90;;;;;;5090687;28;19957;-79
2021/10/29 03:27:13;;;;;;;;;;;11.40;99.90;;;;;;5090766;28;19908;-78
2021/10/29 03:29:39;;;;;;;;;;;11.30;99.90;;;;;;5090441;28;19920;-79
2021/10/29 03:32:05;;;;;;;;;;;11.30;99.90;;;;;;5089195;28;19908;-77
2021/10/29 03:34:31;;;;;;;;;;;11.30;99.90;;;;;;5094544;28;19952;-79
2021/10/29 03:36:56;;;;;;;;;;;11.40;99.90;;;;;;5073203;28;20368;-77
2021/10/29 03:39:27;;;;;;;;;;;11.30;99.90;;;;;;5086621;28;19919;-77
2021/10/29 03:42:02;;;;;;;;;;;11.40;99.90;;;;;;5105268;28;19919;-77
2021/10/29 03:44:44;;;;;;;;;;;11.30;99.90;;;;;;5095676;28;19907;-77
2021/10/29 03:47:12;;;;;;;;;;;11.40;99.90;;;;;;5110234;27;20466;-79
2021/10/29 03:49:48;;;;;;;;;;;11.40;99.90;;;;;;5097069;28;20256;-78
2021/10/29 03:52:24;;;;;;;;;;;11.50;99.90;;;;;;5070794;28;19912;-77
2021/10/29 03:54:55;;;;;;;;;;;11.50;99.90;;;;;;5091809;28;19908;-77
2021/10/29 03:59:46;;;;;;;;;;;11.30;99.90;;;;;;5090733;28;19943;-78
2021/10/29 04:02:12;;;;;;;;;;;11.20;99.90;;;;;;5084759;28;20394;-77
2021/10/29 04:04:37;;;;;;;;;;;11.20;99.90;;;;;;5094163;28;19955;-78
2021/10/29 04:07:03;;;;;;;;;;;11.30;99.90;;;;;;5086198;28;20015;-78
2021/10/29 04:09:29;;;;;;;;;;;11.40;99.90;;;;;;5068400;28;19919;-77
2021/10/29 04:11:54;;;;;;;;;;;11.60;99.90;;;;;;5069911;28;19908;-77
2021/10/29 04:14:23;;;;;;;;;;;11.60;99.90;;;;;;5067982;28;19915;-77
2021/10/29 04:16:48;;;;;;;;;;;11.60;99.90;;;;;;5070307;28;19912;-79
2021/10/29 04:19:14;;;;;;;;;;;11.50;99.90;;;;;;5086180;28;19919;-79
2021/10/29 04:21:40;;;;;;;;;;;11.50;99.90;;;;;;5089053;28;19974;-77
2021/10/29 04:24:05;;;;;;;;;;;11.50;99.90;;;;;;5085944;28;19912;-78
2021/10/29 04:26:32;;;;;;;;;;;11.50;99.90;;;;;;5068222;28;19919;-79
2021/10/29 04:28:57;;;;;;;;;;;11.30;99.90;;;;;;5103335;28;20116;-74
2021/10/29 04:31:27;;;;;;;;;;;11.20;99.90;;;;;;5090509;28;19908;-77
2021/10/29 04:33:53;;;;;;;;;;;11.20;99.90;;;;;;5085062;28;20432;-77
2021/10/29 04:36:19;;;;;;;;;;;11.10;99.90;;;;;;5088556;28;19908;-77
2021/10/29 04:38:45;;;;;;;;;;;11.00;99.90;;;;;;5080898;28;19909;-77
2021/10/29 04:41:10;;;;;;;;;;;10.90;99.90;;;;;;5095017;28;19916;-77
2021/10/29 04:43:38;;;;;;;;;;;11.10;99.90;;;;;;5073048;28;19908;-76
2021/10/29 04:46:03;;;;;;;;;;;11.00;99.90;;;;;;5065944;28;19912;-76
2021/10/29 04:48:30;;;;;;;;;;;10.80;99.90;;;;;;5066791;28;19912;-76
2021/10/29 04:50:55;;;;;;;;;;;10.80;99.90;;;;;;5089250;28;19962;-76
2021/10/29 04:53:21;;;;;;;;;;;10.90;99.90;;;;;;5091323;28;20326;-77
2021/10/29 04:55:46;;;;;;;;;;;10.90;99.90;;;;;;5088351;28;19940;-78
2021/10/29 04:58:12;;;;;;;;;;;10.90;99.90;;;;;;5087840;28;19934;-76
2021/10/29 05:00:37;;;;;;;;;;;10.90;99.90;;;;;;5060892;28;20355;-77
2021/10/29 05:03:06;;;;;;;;;;;11.10;99.90;;;;;;5090505;28;19907;-78
2021/10/29 05:05:31;;;;;;;;;;;11.30;99.90;;;;;;5086573;28;19912;-75
2021/10/29 05:07:57;;;;;;;;;;;11.40;99.90;;;;;;5091087;28;19916;-76
2021/10/29 05:10:22;;;;;;;;;;;11.40;99.90;;;;;;5094541;28;19908;-77
2021/10/29 05:12:48;;;;;;;;;;;11.40;99.90;;;;;;5088570;28;19958;-77
2021/10/29 05:15:14;;;;;;;;;;;11.40;99.90;;;;;;5094778;28;19908;-78
2021/10/29 05:17:42;;;;;;;;;;;11.50;99.90;;;;;;5086274;28;19912;-77
2021/10/29 05:20:08;;;;;;;;;;;11.40;99.90;;;;;;5092955;28;19908;-76
2021/10/29 05:22:33;;;;;;;;;;;11.20;99.90;;;;;;5070947;28;20368;-77
2021/10/29 05:24:59;;;;;;;;;;;11.10;99.90;;;;;;5090267;28;19908;-74
2021/10/29 05:27:24;;;;;;;;;;;11.10;99.90;;;;;;5085491;28;19909;-77
2021/10/29 05:29:50;;;;;;;;;;;11.10;99.90;;;;;;5065702;28;19913;-77
2021/10/29 05:32:15;;;;;;;;;;;11.00;99.90;;;;;;5087848;28;20363;-77
2021/10/29 05:34:41;;;;;;;;;;;10.90;99.90;;;;;;5090115;28;19916;-77
2021/10/29 05:37:06;;;;;;;;;;;10.90;99.90;;;;;;5103253;28;20265;-77
2021/10/29 05:39:32;;;;;;;;;;;11.10;99.90;;;;;;5086503;28;19920;-77
2021/10/29 05:41:58;;;;;;;;;;;11.00;99.90;;;;;;5066276;28;19920;-77
2021/10/29 05:44:24;;;;;;;;;;;11.00;99.90;;;;;;5082913;28;19908;-79
2021/10/29 05:46:50;;;;;;;;;;;11.10;99.90;;;;;;5082200;28;19921;-78
2021/10/29 05:49:16;;;;;;;;;;;11.10;99.90;;;;;;5066077;28;20309;-76
2021/10/29 05:51:47;;;;;;;;;;;11.20;99.90;;;;;;5075719;28;19920;-76
2021/10/29 05:56:40;;;;;;;;;;;11.20;99.90;;;;;;5073033;28;19920;-79
2021/10/29 05:59:05;;;;;;;;;;;11.40;99.90;;;;;;5064442;28;19926;-79
2021/10/29 06:01:32;;;;;;;;;;;11.50;99.90;;;;;;5049313;28;20284;-80
2021/10/29 06:03:57;;;;;;;;;;;11.60;99.90;;;;;;5063493;28;20503;-75
2021/10/29 06:06:23;;;;;;;;;;;11.60;99.90;;;;;;5069941;28;20291;-78
2021/10/29 06:08:49;;;;;;;;;;;11.70;99.90;;;;;;5077516;28;19923;-76
2021/10/29 06:11:14;;;;;;;;;;;11.90;99.90;;;;;;5062674;28;19915;-78
2021/10/29 06:13:41;;;;;;;;;;;12.00;99.90;;;;;;5071727;28;19919;-76
2021/10/29 06:16:08;;;;;;;;;;;12.00;99.90;;;;;;5069891;28;19999;-77
2021/10/29 06:18:34;;;;;;;;;;;12.10;99.90;;;;;;5072542;28;19912;-76
2021/10/29 06:21:00;;;;;;;;;;;12.10;99.90;;;;;;5065904;28;19923;-77
2021/10/29 06:23:34;;;;;;;;;;;12.20;99.90;;;;;;5073751;28;19912;-77
2021/10/29 06:26:01;;;;;;;;;;;12.20;99.90;;;;;;5066589;28;19935;-78
2021/10/29 06:28:29;;;;;;;;;;;12.20;99.90;;;;;;5075721;28;19917;-76
2021/10/29 06:30:55;;;;;;;;;;;12.10;99.90;;;;;;5087728;28;19944;-76
2021/10/29 06:33:23;;;;;;;;;;;12.20;99.90;;;;;;5067387;28;20433;-75
2021/10/29 06:35:49;;;;;;;;;;;12.30;99.90;;;;;;5078527;28;20327;-76
2021/10/29 06:38:15;;;;;;;;;;;12.30;99.90;;;;;;5069980;28;19928;-77
2021/10/29 06:40:45;;;;;;;;;;;12.40;99.90;;;;;;5073529;28;20415;-77
2021/10/29 06:43:27;;;;;;;;;;;12.40;99.90;;;;;;5074880;28;20364;-77
2021/10/29 06:46:07;;;;;;;;;;;12.40;99.90;;;;;;5079351;28;19924;-77
2021/10/29 06:59:40;;;;;;;;;;;12.50;99.90;;;;;;5065036;28;20339;-83
2021/10/29 07:05:17;;;;;;;;;;;12.40;99.90;;;;;;5081517;28;19973;-75
2021/10/29 07:40:16;;;;;;;;;;;12.70;99.90;;;;;;5069702;28;19973;-76
2021/10/29 07:45:09;;;;;;;;;;;12.80;99.90;;;;;;5066473;28;19948;-75
2021/10/29 07:47:36;;;;;;;;;;;12.90;99.90;;;;;;5084190;28;19923;-76
2021/10/29 07:50:02;;;;;;;;;;;13.00;99.90;;;;;;5103969;28;20472;-75
2021/10/29 07:52:28;;;;;;;;;;;13.10;99.90;;;;;;5098336;28;19915;-76
2021/10/29 07:54:54;;;;;;;;;;;13.20;99.90;;;;;;5081241;28;19923;-77
2021/10/29 07:57:20;;;;;;;;;;;13.10;99.90;;;;;;5106789;28;19918;-76
2021/10/29 07:59:52;;;;;;;;;;;13.20;99.90;;;;;;5078576;28;19957;-77
2021/10/29 08:02:18;;;;;;;;;;;13.20;99.90;;;;;;5097863;28;20374;-76
2021/10/29 08:04:44;;;;;;;;;;;13.30;99.90;;;;;;5114270;27;19912;-76
2021/10/29 08:07:09;;;;;;;;;;;13.30;99.90;;;;;;5104357;28;19911;-76
2021/10/29 08:09:35;;;;;;;;;;;13.30;99.90;;;;;;5098458;28;19954;-76
2021/10/29 08:12:01;;;;;;;;;;;13.30;99.90;;;;;;5100357;28;20367;-76
2021/10/29 08:14:26;;;;;;;;;;;13.30;99.90;;;;;;5080577;28;20298;-76
2021/10/29 08:16:53;;;;;;;;;;;13.40;99.90;;;;;;5080769;28;19912;-76
2021/10/29 08:19:26;;;;;;;;;;;13.50;99.90;;;;;;5099851;28;19971;-76
2021/10/29 08:21:51;;;;;;;;;;;13.50;99.90;;;;;;5081475;28;19915;-75
2021/10/29 08:24:17;;;;;;;;;;;13.60;99.90;;;;;;5105277;28;20291;-76
2021/10/29 08:26:43;;;;;;;;;;;13.70;99.90;;;;;;5098314;28;19920;-76
2021/10/29 08:29:08;;;;;;;;;;;13.80;99.90;;;;;;5094724;28;19916;-75
2021/10/29 08:31:34;;;;;;;;;;;13.90;99.90;;;;;;5078159;28;19912;-76
2021/10/29 08:34:00;;;;;;;;;;;14.00;99.90;;;;;;5086848;28;20225;-75
2021/10/29 08:36:26;;;;;;;;;;;14.10;99.90;;;;;;5089351;28;19912;-76
2021/10/29 08:38:52;;;;;;;;;;;14.30;99.90;;;;;;5088349;28;19912;-76
2021/10/29 08:41:18;;;;;;;;;;;14.30;99.90;;;;;;5080982;28;20330;-76
2021/10/29 08:43:43;;;;;;;;;;;14.20;99.90;;;;;;5069006;28;19913;-76
2021/10/29 08:46:09;;;;;;;;;;;14.20;99.90;;;;;;5075317;28;20633;-74
2021/10/29 08:48:37;;;;;;;;;;;14.20;99.90;;;;;;5094929;28;20373;-76
2021/10/29 08:51:04;;;;;;;;;;;14.20;99.90;;;;;;5067431;28;20326;-76
2021/10/29 08:53:30;;;;;;;;;;;14.20;99.90;;;;;;5084161;28;20446;-75
2021/10/29 08:56:00;;;;;;;;;;;14.10;99.90;;;;;;5088962;28;20295;-75
2021/10/29 08:58:26;;;;;;;;;;;14.10;99.90;;;;;;5080768;28;20359;-75
2021/10/29 09:00:52;;;;;;;;;;;14.20;99.90;;;;;;5075957;28;19919;-76
2021/10/29 09:06:20;;;;;;;;;;;14.20;99.90;;;;;;5094048;28;19916;-76
2021/10/29 09:09:14;;;;;;;;;;;14.20;99.90;;;;;;5085296;28;20436;-77
2021/10/29 09:11:54;;;;;;;;;;;14.20;99.90;;;;;;5085689;28;20717;-76
2021/10/29 09:17:42;;;;;;;;;;;14.30;99.90;;;;;;4989406;28;20449;-76
2021/10/29 09:31:55;;;;;;;;;;;14.60;99.90;;;;;;5088789;28;19926;-76
2021/10/29 09:34:22;;;;;;;;;;;14.90;99.90;;;;;;5083729;28;19927;-76
2021/10/29 09:36:52;;;;;;;;;;;15.00;99.90;;;;;;5086567;28;19913;-75
2021/10/29 09:39:20;;;;;;;;;;;15.00;99.90;;;;;;5086497;28;20023;-76
2021/10/29 09:41:46;;;;;;;;;;;14.90;99.90;;;;;;5091665;28;19912;-75
2021/10/29 09:44:17;;;;;;;;;;;15.10;99.90;;;;;;5078691;28;19927;-76
2021/10/29 09:46:58;;;;;;;;;;;15.40;99.90;;;;;;5112525;27;19970;-76
2021/10/29 09:49:32;;;;;;;;;;;15.60;99.90;;;;;;5068787;28;19924;-76
2021/10/29 09:55:45;;;;;;;;;;;15.80;99.90;;;;;;5075857;28;19912;-76
2021/10/29 09:57:33;;;;;;;;;;;15.90;99.90;;;;;;5061793;28;20311;-75
2021/10/29 10:00:00;;;;;;;;;;;16.10;99.90;;;;;;5070852;28;19913;-75
2021/10/29 10:02:27;;;;;;;;;;;16.70;99.90;;;;;;5073948;28;19916;-76
2021/10/29 10:04:53;;;;;;;;;;;16.20;99.90;;;;;;5072791;28;20312;-76
2021/10/29 10:07:20;;;;;;;;;;;16.00;99.90;;;;;;5068243;28;20371;-76
2021/10/29 10:09:46;;;;;;;;;;;15.80;99.90;;;;;;5071553;28;19928;-75
2021/10/29 10:12:13;;;;;;;;;;;16.30;99.90;;;;;;5096810;28;20384;-74
2021/10/29 10:14:39;;;;;;;;;;;16.20;99.90;;;;;;5069305;28;20001;-75
2021/10/29 10:17:04;;;;;;;;;;;15.80;99.90;;;;;;5069102;28;19931;-76
2021/10/29 10:19:30;;;;;;;;;;;15.30;99.90;;;;;;5066504;28;19950;-75
2021/10/29 10:21:57;;;;;;;;;;;15.10;99.90;;;;;;5066782;28;19931;-76
2021/10/29 10:24:30;;;;;;;;;;;15.00;99.90;;;;;;5071146;28;19912;-76
2021/10/29 10:44:30;;;;;;;;;;;16.80;99.90;;;;;;5082320;28;19931;-75
2021/10/29 10:46:58;;;;;;;;;;;17.30;99.90;;;;;;5114131;27;20261;-76
2021/10/29 10:50:15;;;;;;;;;;;17.40;99.90;;;;;;5079956;28;19920;-76
2021/10/29 10:52:34;;;;;;;;;;;17.50;99.90;;;;;;5081511;28;19966;-75
2021/10/29 10:55:09;;;;;;;;;;;17.30;99.90;;;;;;5083368;28;19939;-76
2021/10/29 11:00:16;;;;;;;;;;;16.40;99.90;;;;;;5084191;28;19913;-76
2021/10/29 11:10:14;;;;;;;;;;;16.20;99.90;;;;;;5073017;28;19990;-76
2021/10/29 11:12:44;;;;;;;;;;;16.20;99.90;;;;;;5077552;28;19916;-75
2021/10/29 11:15:13;;;;;;;;;;;16.20;99.90;;;;;;5079065;28;19924;-75
2021/10/29 11:17:42;;;;;;;;;;;16.40;99.90;;;;;;5063521;28;20452;-75
2021/10/29 11:20:08;;;;;;;;;;;16.30;99.90;;;;;;5109124;27;19916;-76
2021/10/29 11:22:53;;;;;;;;;;;16.70;99.90;;;;;;5076379;28;19916;-76
2021/10/29 11:25:19;;;;;;;;;;;17.00;99.90;;;;;;5068226;28;19913;-74
2021/10/29 11:27:45;;;;;;;;;;;17.40;99.90;;;;;;5072125;28;19995;-78
2021/10/29 11:30:10;;;;;;;;;;;18.30;99.90;;;;;;5070570;28;19959;-77
2021/10/29 11:32:38;;;;;;;;;;;17.90;99.90;;;;;;5067571;28;20000;-76
2021/10/29 11:35:04;;;;;;;;;;;17.30;99.90;;;;;;5069082;28;19999;-75
2021/10/29 11:37:33;;;;;;;;;;;17.10;99.90;;;;;;5071646;28;19912;-76
2021/10/29 11:39:59;;;;;;;;;;;17.40;99.90;;;;;;5068835;28;19915;-76
2021/10/29 11:42:28;;;;;;;;;;;17.50;99.90;;;;;;5101627;28;20046;-75
2021/10/29 11:44:55;;;;;;;;;;;17.70;99.90;;;;;;5077384;28;20394;-75
2021/10/29 11:47:20;;;;;;;;;;;17.70;99.90;;;;;;5062150;28;19931;-75
2021/10/29 11:49:46;;;;;;;;;;;17.80;99.90;;;;;;5079469;28;19916;-77
2021/10/29 11:52:12;;;;;;;;;;;18.10;99.90;;;;;;5056631;28;19969;-77
2021/10/29 11:54:40;;;;;;;;;;;18.50;99.90;;;;;;5060861;28;20011;-77
2021/10/29 12:07:21;;;;;;;;;;;19.40;98.10;;;;;;5071745;28;20422;-77
2021/10/29 12:10:03;;;;;;;;;;;19.20;98.20;;;;;;5072827;28;20030;-75
2021/10/29 12:12:30;;;;;;;;;;;19.00;98.50;;;;;;5070450;28;20003;-76
2021/10/29 12:14:59;;;;;;;;;;;19.30;98.00;;;;;;5081883;28;20275;-76
2021/10/29 12:20:04;;;;;;;;;;;20.60;96.50;;;;;;5072927;28;19994;-75
2021/10/29 12:22:37;;;;;;;;;;;20.30;96.10;;;;;;5066014;28;20193;-75
2021/10/29 12:28:08;;;;;;;;;;;20.60;95.30;;;;;;5082951;28;20317;-75
2021/10/29 12:30:59;;;;;;;;;;;19.70;96.00;;;;;;5062969;28;20061;-76
2021/10/29 12:53:05;;;;;;;;;;;20.50;94.30;;;;;;5094863;28;19938;-76
2021/10/29 13:04:17;;;;;;;;;;;21.20;93.50;;;;;;5093329;28;20163;-76
2021/10/29 13:06:42;;;;;;;;;;;21.40;92.60;;;;;;5083907;28;20372;-76
2021/10/29 13:09:19;;;;;;;;;;;21.50;93.00;;;;;;5099580;28;19919;-75
2021/10/29 13:11:51;;;;;;;;;;;21.00;96.20;;;;;;5091568;28;19969;-75
2021/10/29 13:14:25;;;;;;;;;;;19.90;95.50;;;;;;5098148;28;21216;-75
2021/10/29 13:16:51;;;;;;;;;;;19.10;96.30;;;;;;5091499;28;20008;-76
2021/10/29 13:22:47;;;;;;;;;;;19.80;95.60;;;;;;5089098;28;19920;-76
2021/10/29 13:25:10;;;;;;;;;;;20.00;95.70;;;;;;5090854;28;19920;-77
2021/10/29 13:51:58;;;;;;;;;;;18.90;99.90;;;;;;5091165;28;20374;-76
2021/10/29 14:29:05;;;;;;;;;;;17.60;99.90;;;;;;5086040;28;20458;-76
2021/10/29 14:34:03;;;;;;;;;;;17.50;99.90;;;;;;5086441;28;20011;-76
2021/10/29 14:36:40;;;;;;;;;;;17.60;99.90;;;;;;5088070;28;19912;-76
2021/10/29 14:39:11;;;;;;;;;;;17.60;99.90;;;;;;5070429;28;20236;-75
2021/10/29 14:41:41;;;;;;;;;;;17.40;99.90;;;;;;5067653;28;20264;-75
2021/10/29 14:44:19;;;;;;;;;;;17.30;99.90;;;;;;5106393;27;19922;-76
2021/10/29 14:46:56;;;;;;;;;;;17.30;99.90;;;;;;5104123;27;19924;-76
2021/10/29 15:30:07;;;;;;;;;;;16.50;99.90;;;;;;5088202;28;20014;-75
2021/10/29 15:46:10;;;;;;;;;;;15.90;99.90;;;;;;5085765;28;19916;-75
2021/10/29 15:51:21;;;;;;;;;;;15.90;99.90;;;;;;5083271;28;20022;-75
2021/10/29 15:53:47;;;;;;;;;;;15.70;99.90;;;;;;5086839;28;19915;-76
2021/10/29 15:56:24;;;;;;;;;;;15.60;99.90;;;;;;5086868;28;19956;-76
2021/10/29 16:02:08;;;;;;;;;;;15.40;99.90;;;;;;5084941;28;19912;-76
2021/10/29 16:17:48;;;;;;;;;;;15.20;99.90;;;;;;5085565;28;20042;-76
2021/10/29 16:20:14;;;;;;;;;;;15.10;99.90;;;;;;5084004;28;19923;-77
2021/10/29 16:22:39;;;;;;;;;;;15.00;99.90;;;;;;5107106;27;19916;-76
2021/10/29 16:27:55;;;;;;;;;;;14.90;99.90;;;;;;5086200;28;19920;-77
2021/10/29 16:30:26;;;;;;;;;;;14.80;99.90;;;;;;5082013;28;19920;-76
2021/10/29 16:35:24;;;;;;;;;;;14.80;99.90;;;;;;5090118;28;20136;-76
2021/10/29 16:37:50;;;;;;;;;;;14.80;99.90;;;;;;5084310;28;19919;-76
2021/10/29 16:40:15;;;;;;;;;;;14.80;99.90;;;;;;5086497;28;20314;-76
2021/10/29 16:42:42;;;;;;;;;;;14.70;99.90;;;;;;5090227;28;19912;-76
2021/10/29 16:45:08;;;;;;;;;;;14.70;99.90;;;;;;5103909;27;19944;-76
2021/10/29 16:47:34;;;;;;;;;;;14.60;99.90;;;;;;5084040;28;19933;-76
2021/10/29 16:49:59;;;;;;;;;;;14.60;99.90;;;;;;5083545;28;19920;-77
2021/10/29 16:52:29;;;;;;;;;;;14.60;99.90;;;;;;5092973;28;20279;-77
2021/10/29 16:54:55;;;;;;;;;;;14.50;99.90;;;;;;5088663;28;19916;-77
2021/10/29 16:57:20;;;;;;;;;;;14.40;99.90;;;;;;5110675;27;19916;-75
2021/10/29 16:59:46;;;;;;;;;;;14.40;99.90;;;;;;5061335;28;20377;-76
2021/10/29 17:02:12;;;;;;;;;;;14.40;99.90;;;;;;5055451;28;20016;-77
2021/10/29 17:04:38;;;;;;;;;;;14.50;99.90;;;;;;5058087;28;20442;-76
2021/10/29 17:07:04;;;;;;;;;;;14.50;99.90;;;;;;5087073;28;19916;-75
2021/10/29 17:09:29;;;;;;;;;;;14.50;99.90;;;;;;5086014;28;19916;-76
2021/10/29 17:11:55;;;;;;;;;;;14.40;99.90;;;;;;5091848;28;20290;-77
2021/10/29 17:14:21;;;;;;;;;;;14.40;99.90;;;;;;5069081;28;19916;-77
2021/10/29 17:16:47;;;;;;;;;;;14.40;99.90;;;;;;5079698;28;19915;-76
2021/10/29 17:19:13;;;;;;;;;;;14.50;99.90;;;;;;5086147;28;19920;-75
2021/10/29 17:21:38;;;;;;;;;;;14.50;99.90;;;;;;5101934;28;20400;-76
2021/10/29 17:24:04;;;;;;;;;;;14.40;99.90;;;;;;5061560;28;19963;-75
2021/10/29 17:26:31;;;;;;;;;;;14.30;99.90;;;;;;5085759;28;20382;-76
2021/10/29 17:28:56;;;;;;;;;;;14.30;99.90;;;;;;5105818;28;19950;-76
2021/10/29 17:31:22;;;;;;;;;;;14.40;99.90;;;;;;5066748;28;19912;-73
2021/10/29 17:33:48;;;;;;;;;;;14.40;99.90;;;;;;5067761;28;19916;-76
2021/10/29 17:36:14;;;;;;;;;;;14.30;99.90;;;;;;5084504;28;20455;-75
2021/10/29 17:38:39;;;;;;;;;;;14.20;99.90;;;;;;5090656;28;19982;-76
2021/10/29 17:41:05;;;;;;;;;;;14.20;99.90;;;;;;5055225;28;19924;-74
2021/10/29 17:43:30;;;;;;;;;;;14.30;99.90;;;;;;5074253;28;20010;-75
2021/10/29 17:45:56;;;;;;;;;;;14.30;99.90;;;;;;5100690;28;19962;-75
2021/10/29 17:48:22;;;;;;;;;;;14.20;99.90;;;;;;5059124;28;19927;-76
2021/10/29 17:50:48;;;;;;;;;;;14.30;99.90;;;;;;5097460;28;19935;-75
2021/10/29 17:53:14;;;;;;;;;;;14.30;99.90;;;;;;5079823;28;19915;-75
2021/10/29 17:55:40;;;;;;;;;;;14.30;99.90;;;;;;5092281;28;20363;-74
2021/10/29 17:58:06;;;;;;;;;;;14.20;99.90;;;;;;5114706;28;19918;-75
2021/10/29 18:00:31;;;;;;;;;;;14.30;99.90;;;;;;5071545;28;19912;-75
2021/10/29 18:02:57;;;;;;;;;;;14.30;99.90;;;;;;5096230;28;19912;-73
2021/10/29 18:05:23;;;;;;;;;;;14.40;99.90;;;;;;5103692;28;19982;-74
2021/10/29 18:07:54;;;;;;;;;;;14.30;99.90;;;;;;5095841;28;20426;-74
2021/10/29 18:10:20;;;;;;;;;;;14.30;99.90;;;;;;5094082;28;20039;-75
2021/10/29 18:12:46;;;;;;;;;;;14.40;99.90;;;;;;5087408;28;20003;-75
2021/10/29 18:15:11;;;;;;;;;;;14.30;99.90;;;;;;5086488;28;20401;-75
2021/10/29 18:17:37;;;;;;;;;;;14.40;99.90;;;;;;5079541;28;19908;-74
2021/10/29 18:20:03;;;;;;;;;;;14.40;99.90;;;;;;5100803;28;19916;-75
2021/10/29 18:22:29;;;;;;;;;;;14.40;99.90;;;;;;5078539;28;20306;-76
2021/10/29 18:24:54;;;;;;;;;;;14.40;99.90;;;;;;5063668;28;19919;-75
2021/10/29 18:27:23;;;;;;;;;;;14.50;99.90;;;;;;5076852;28;20228;-75
2021/10/29 18:29:52;;;;;;;;;;;14.50;99.90;;;;;;5100640;27;20381;-75
2021/10/29 18:32:18;;;;;;;;;;;14.50;99.90;;;;;;5087705;28;19923;-74
2021/10/29 18:34:48;;;;;;;;;;;14.50;99.90;;;;;;5079092;28;19920;-76
2021/10/29 18:37:16;;;;;;;;;;;14.50;99.90;;;;;;5083443;28;19942;-75
2021/10/29 18:39:42;;;;;;;;;;;14.50;99.90;;;;;;5084470;28;20515;-74
2021/10/29 18:42:07;;;;;;;;;;;14.50;99.90;;;;;;5088880;28;19977;-74
2021/10/29 18:44:34;;;;;;;;;;;14.60;99.90;;;;;;5062120;28;20032;-75
2021/10/29 18:47:00;;;;;;;;;;;14.50;99.90;;;;;;5082252;28;20416;-76
2021/10/29 18:49:27;;;;;;;;;;;14.50;99.90;;;;;;5061629;28;20498;-76
2021/10/29 18:51:53;;;;;;;;;;;14.50;99.90;;;;;;5087293;28;20379;-76
2021/10/29 18:54:19;;;;;;;;;;;14.60;99.90;;;;;;5088719;28;19919;-76
2021/10/29 18:56:44;;;;;;;;;;;14.60;99.90;;;;;;5069662;28;20006;-75
2021/10/29 18:59:10;;;;;;;;;;;14.50;99.90;;;;;;5088318;28;20085;-75
2021/10/29 19:01:35;;;;;;;;;;;14.50;99.90;;;;;;5090726;28;19980;-76
2021/10/29 19:04:01;;;;;;;;;;;14.50;99.90;;;;;;5102580;27;20061;-76
2021/10/29 19:06:27;;;;;;;;;;;14.50;99.90;;;;;;5066080;28;19919;-74